sensor_id;sensor_type;location;lat;lon;timestamp;P1;durP1;ratioP1;P2;durP2;ratioP2
44832;SDS011;30569;51.252;9.830;2023-07-13T00:01:50;5.22;;;1.77;;
44832;SDS011;30569;51.252;9.830;2023-07-13T00:04:17;5.55;;;1.77;;
44832;SDS011;30569;51.252;9.830;2023-07-13T00:06:44;3.72;;;1.55;;
44832;SDS011;30569;51.252;9.830;2023-07-13T00:09:14;4.80;;;1.63;;
44832;SDS011;30569;51.252;9.830;2023-07-13T00:11:41;4.75;;;1.60;;
44832;SDS011;30569;51.252;9.830;2023-07-13T00:14:08;4.85;;;1.92;;
44832;SDS011;30569;51.252;9.830;2023-07-13T00:16:37;5.32;;;2.00;;
44832;SDS011;30569;51.252;9.830;2023-07-13T00:19:06;3.72;;;1.65;;
44832;SDS011;30569;51.252;9.830;2023-07-13T00:21:31;6.82;;;1.88;;
44832;SDS011;30569;51.252;9.830;2023-07-13T00:23:57;3.70;;;1.83;;
44832;SDS011;30569;51.252;9.830;2023-07-13T00:26:23;6.10;;;2.00;;
44832;SDS011;30569;51.252;9.830;2023-07-13T00:28:49;4.85;;;2.47;;
44832;SDS011;30569;51.252;9.830;2023-07-13T00:31:15;3.90;;;1.63;;
44832;SDS011;30569;51.252;9.830;2023-07-13T00:33:41;4.03;;;1.80;;
44832;SDS011;30569;51.252;9.830;2023-07-13T00:36:07;7.63;;;2.08;;
44832;SDS011;30569;51.252;9.830;2023-07-13T00:38:33;3.90;;;1.67;;
44832;SDS011;30569;51.252;9.830;2023-07-13T00:40:59;4.50;;;1.92;;
44832;SDS011;30569;51.252;9.830;2023-07-13T00:43:26;6.10;;;1.98;;
44832;SDS011;30569;51.252;9.830;2023-07-13T00:48:20;4.22;;;2.05;;
44832;SDS011;30569;51.252;9.830;2023-07-13T00:50:48;4.47;;;1.60;;
44832;SDS011;30569;51.252;9.830;2023-07-13T00:53:15;5.63;;;2.00;;
44832;SDS011;30569;51.252;9.830;2023-07-13T00:55:41;8.32;;;2.38;;
44832;SDS011;30569;51.252;9.830;2023-07-13T00:58:07;4.40;;;1.90;;
44832;SDS011;30569;51.252;9.830;2023-07-13T01:00:33;3.67;;;1.83;;
44832;SDS011;30569;51.252;9.830;2023-07-13T01:03:01;5.60;;;1.90;;
44832;SDS011;30569;51.252;9.830;2023-07-13T01:05:29;4.85;;;2.03;;
44832;SDS011;30569;51.252;9.830;2023-07-13T01:07:57;7.43;;;2.10;;
44832;SDS011;30569;51.252;9.830;2023-07-13T01:10:24;5.18;;;1.92;;
44832;SDS011;30569;51.252;9.830;2023-07-13T01:12:50;4.07;;;1.70;;
44832;SDS011;30569;51.252;9.830;2023-07-13T01:15:33;6.43;;;2.17;;
44832;SDS011;30569;51.252;9.830;2023-07-13T01:18:09;5.90;;;1.75;;
44832;SDS011;30569;51.252;9.830;2023-07-13T01:20:56;5.35;;;2.00;;
44832;SDS011;30569;51.252;9.830;2023-07-13T01:23:23;4.53;;;2.15;;
44832;SDS011;30569;51.252;9.830;2023-07-13T01:25:51;8.32;;;2.15;;
44832;SDS011;30569;51.252;9.830;2023-07-13T01:28:17;5.93;;;2.45;;
44832;SDS011;30569;51.252;9.830;2023-07-13T01:30:44;5.40;;;2.35;;
44832;SDS011;30569;51.252;9.830;2023-07-13T01:33:11;6.20;;;2.35;;
44832;SDS011;30569;51.252;9.830;2023-07-13T01:35:38;5.03;;;1.88;;
44832;SDS011;30569;51.252;9.830;2023-07-13T01:38:04;5.97;;;2.15;;
44832;SDS011;30569;51.252;9.830;2023-07-13T01:40:30;4.75;;;2.45;;
44832;SDS011;30569;51.252;9.830;2023-07-13T01:42:56;5.05;;;2.28;;
44832;SDS011;30569;51.252;9.830;2023-07-13T01:45:22;5.10;;;2.20;;
44832;SDS011;30569;51.252;9.830;2023-07-13T01:47:48;5.32;;;2.20;;
44832;SDS011;30569;51.252;9.830;2023-07-13T01:50:13;5.50;;;2.45;;
44832;SDS011;30569;51.252;9.830;2023-07-13T01:52:39;4.97;;;2.22;;
44832;SDS011;30569;51.252;9.830;2023-07-13T01:55:05;5.38;;;2.28;;
44832;SDS011;30569;51.252;9.830;2023-07-13T01:57:30;6.28;;;2.13;;
44832;SDS011;30569;51.252;9.830;2023-07-13T01:59:56;4.68;;;2.25;;
44832;SDS011;30569;51.252;9.830;2023-07-13T02:02:22;4.43;;;2.17;;
44832;SDS011;30569;51.252;9.830;2023-07-13T02:04:47;4.90;;;2.28;;
44832;SDS011;30569;51.252;9.830;2023-07-13T02:07:13;10.55;;;2.55;;
44832;SDS011;30569;51.252;9.830;2023-07-13T02:09:40;5.22;;;1.88;;
44832;SDS011;30569;51.252;9.830;2023-07-13T02:12:05;4.78;;;2.30;;
44832;SDS011;30569;51.252;9.830;2023-07-13T02:14:31;5.32;;;2.03;;
44832;SDS011;30569;51.252;9.830;2023-07-13T02:16:57;5.15;;;2.13;;
44832;SDS011;30569;51.252;9.830;2023-07-13T02:19:23;7.43;;;2.75;;
44832;SDS011;30569;51.252;9.830;2023-07-13T02:21:48;5.80;;;2.03;;
44832;SDS011;30569;51.252;9.830;2023-07-13T02:24:14;6.32;;;2.40;;
44832;SDS011;30569;51.252;9.830;2023-07-13T02:26:42;6.20;;;2.03;;
44832;SDS011;30569;51.252;9.830;2023-07-13T02:29:08;5.45;;;2.00;;
44832;SDS011;30569;51.252;9.830;2023-07-13T02:31:34;4.53;;;1.90;;
44832;SDS011;30569;51.252;9.830;2023-07-13T02:34:01;7.43;;;2.20;;
44832;SDS011;30569;51.252;9.830;2023-07-13T02:36:26;5.50;;;2.80;;
44832;SDS011;30569;51.252;9.830;2023-07-13T02:38:52;5.72;;;2.20;;
44832;SDS011;30569;51.252;9.830;2023-07-13T02:41:18;5.75;;;2.70;;
44832;SDS011;30569;51.252;9.830;2023-07-13T02:43:43;5.38;;;2.78;;
44832;SDS011;30569;51.252;9.830;2023-07-13T02:46:09;5.15;;;2.53;;
44832;SDS011;30569;51.252;9.830;2023-07-13T02:48:35;6.28;;;2.90;;
44832;SDS011;30569;51.252;9.830;2023-07-13T02:51:02;4.53;;;2.60;;
44832;SDS011;30569;51.252;9.830;2023-07-13T02:53:28;5.88;;;2.53;;
44832;SDS011;30569;51.252;9.830;2023-07-13T02:55:54;6.68;;;2.63;;
44832;SDS011;30569;51.252;9.830;2023-07-13T02:58:19;7.03;;;2.70;;
44832;SDS011;30569;51.252;9.830;2023-07-13T03:00:46;8.35;;;2.95;;
44832;SDS011;30569;51.252;9.830;2023-07-13T03:03:13;4.60;;;2.38;;
44832;SDS011;30569;51.252;9.830;2023-07-13T03:05:40;6.85;;;2.60;;
44832;SDS011;30569;51.252;9.830;2023-07-13T03:08:07;5.35;;;2.58;;
44832;SDS011;30569;51.252;9.830;2023-07-13T03:10:33;5.90;;;2.20;;
44832;SDS011;30569;51.252;9.830;2023-07-13T03:12:59;7.88;;;2.35;;
44832;SDS011;30569;51.252;9.830;2023-07-13T03:15:25;6.68;;;3.05;;
44832;SDS011;30569;51.252;9.830;2023-07-13T03:17:51;6.72;;;2.78;;
44832;SDS011;30569;51.252;9.830;2023-07-13T03:20:17;7.47;;;2.45;;
44832;SDS011;30569;51.252;9.830;2023-07-13T03:22:42;4.13;;;2.28;;
44832;SDS011;30569;51.252;9.830;2023-07-13T03:25:08;5.32;;;2.03;;
44832;SDS011;30569;51.252;9.830;2023-07-13T03:27:34;6.07;;;2.40;;
44832;SDS011;30569;51.252;9.830;2023-07-13T03:29:59;4.88;;;2.50;;
44832;SDS011;30569;51.252;9.830;2023-07-13T03:32:25;6.22;;;2.20;;
44832;SDS011;30569;51.252;9.830;2023-07-13T03:34:51;5.75;;;2.92;;
44832;SDS011;30569;51.252;9.830;2023-07-13T03:37:16;4.78;;;2.38;;
44832;SDS011;30569;51.252;9.830;2023-07-13T03:39:42;8.75;;;3.20;;
44832;SDS011;30569;51.252;9.830;2023-07-13T03:42:07;8.98;;;2.60;;
44832;SDS011;30569;51.252;9.830;2023-07-13T03:44:33;6.10;;;2.20;;
44832;SDS011;30569;51.252;9.830;2023-07-13T03:46:59;5.45;;;2.40;;
44832;SDS011;30569;51.252;9.830;2023-07-13T03:49:25;4.60;;;2.13;;
44832;SDS011;30569;51.252;9.830;2023-07-13T03:51:50;4.82;;;2.33;;
44832;SDS011;30569;51.252;9.830;2023-07-13T03:54:16;4.15;;;2.17;;
44832;SDS011;30569;51.252;9.830;2023-07-13T03:56:42;6.90;;;2.25;;
44832;SDS011;30569;51.252;9.830;2023-07-13T03:59:07;7.28;;;2.15;;
44832;SDS011;30569;51.252;9.830;2023-07-13T04:01:33;6.57;;;2.42;;
44832;SDS011;30569;51.252;9.830;2023-07-13T04:03:59;4.82;;;2.50;;
44832;SDS011;30569;51.252;9.830;2023-07-13T04:06:28;6.25;;;2.60;;
44832;SDS011;30569;51.252;9.830;2023-07-13T04:08:56;4.18;;;2.15;;
44832;SDS011;30569;51.252;9.830;2023-07-13T04:11:24;5.45;;;2.40;;
44832;SDS011;30569;51.252;9.830;2023-07-13T04:13:51;6.45;;;2.60;;
44832;SDS011;30569;51.252;9.830;2023-07-13T04:16:17;6.60;;;2.50;;
44832;SDS011;30569;51.252;9.830;2023-07-13T04:18:44;6.93;;;2.40;;
44832;SDS011;30569;51.252;9.830;2023-07-13T04:21:10;7.75;;;2.45;;
44832;SDS011;30569;51.252;9.830;2023-07-13T04:23:36;5.38;;;2.30;;
44832;SDS011;30569;51.252;9.830;2023-07-13T04:26:02;6.68;;;2.40;;
44832;SDS011;30569;51.252;9.830;2023-07-13T04:28:28;6.05;;;2.63;;
44832;SDS011;30569;51.252;9.830;2023-07-13T04:30:54;10.85;;;3.00;;
44832;SDS011;30569;51.252;9.830;2023-07-13T04:33:20;8.25;;;3.08;;
44832;SDS011;30569;51.252;9.830;2023-07-13T04:35:49;8.45;;;2.83;;
44832;SDS011;30569;51.252;9.830;2023-07-13T04:38:21;5.10;;;2.77;;
44832;SDS011;30569;51.252;9.830;2023-07-13T04:40:47;9.85;;;3.50;;
44832;SDS011;30569;51.252;9.830;2023-07-13T04:43:13;7.57;;;3.00;;
44832;SDS011;30569;51.252;9.830;2023-07-13T04:45:39;5.50;;;2.90;;
44832;SDS011;30569;51.252;9.830;2023-07-13T04:48:04;6.78;;;2.90;;
44832;SDS011;30569;51.252;9.830;2023-07-13T04:50:30;9.13;;;3.28;;
44832;SDS011;30569;51.252;9.830;2023-07-13T04:52:56;10.55;;;3.10;;
44832;SDS011;30569;51.252;9.830;2023-07-13T04:55:21;11.30;;;3.35;;
44832;SDS011;30569;51.252;9.830;2023-07-13T04:57:47;9.15;;;3.10;;
44832;SDS011;30569;51.252;9.830;2023-07-13T05:00:13;5.32;;;3.25;;
44832;SDS011;30569;51.252;9.830;2023-07-13T05:02:40;8.40;;;3.50;;
44832;SDS011;30569;51.252;9.830;2023-07-13T05:05:08;9.43;;;3.60;;
44832;SDS011;30569;51.252;9.830;2023-07-13T05:07:34;10.15;;;3.47;;
44832;SDS011;30569;51.252;9.830;2023-07-13T05:09:59;6.22;;;3.22;;
44832;SDS011;30569;51.252;9.830;2023-07-13T05:12:25;6.63;;;3.30;;
44832;SDS011;30569;51.252;9.830;2023-07-13T05:14:51;6.40;;;3.03;;
44832;SDS011;30569;51.252;9.830;2023-07-13T05:17:17;6.65;;;3.00;;
44832;SDS011;30569;51.252;9.830;2023-07-13T05:19:43;7.93;;;3.33;;
44832;SDS011;30569;51.252;9.830;2023-07-13T05:22:08;6.20;;;2.80;;
44832;SDS011;30569;51.252;9.830;2023-07-13T05:24:34;7.10;;;2.60;;
44832;SDS011;30569;51.252;9.830;2023-07-13T05:26:59;7.55;;;2.35;;
44832;SDS011;30569;51.252;9.830;2023-07-13T05:29:25;7.05;;;2.30;;
44832;SDS011;30569;51.252;9.830;2023-07-13T05:31:50;7.22;;;2.90;;
44832;SDS011;30569;51.252;9.830;2023-07-13T05:34:16;7.68;;;2.20;;
44832;SDS011;30569;51.252;9.830;2023-07-13T05:36:42;5.80;;;2.10;;
44832;SDS011;30569;51.252;9.830;2023-07-13T05:39:07;7.10;;;2.40;;
44832;SDS011;30569;51.252;9.830;2023-07-13T05:41:33;6.63;;;1.90;;
44832;SDS011;30569;51.252;9.830;2023-07-13T05:43:59;5.05;;;1.98;;
44832;SDS011;30569;51.252;9.830;2023-07-13T05:46:24;6.63;;;2.00;;
44832;SDS011;30569;51.252;9.830;2023-07-13T05:48:50;9.13;;;2.28;;
44832;SDS011;30569;51.252;9.830;2023-07-13T05:51:16;9.07;;;2.10;;
44832;SDS011;30569;51.252;9.830;2023-07-13T05:53:41;5.72;;;1.75;;
44832;SDS011;30569;51.252;9.830;2023-07-13T05:56:07;7.95;;;1.95;;
44832;SDS011;30569;51.252;9.830;2023-07-13T05:58:32;6.43;;;2.10;;
44832;SDS011;30569;51.252;9.830;2023-07-13T06:01:01;7.88;;;1.80;;
44832;SDS011;30569;51.252;9.830;2023-07-13T06:03:28;6.30;;;1.63;;
44832;SDS011;30569;51.252;9.830;2023-07-13T06:05:54;6.35;;;1.75;;
44832;SDS011;30569;51.252;9.830;2023-07-13T06:08:20;9.35;;;2.40;;
44832;SDS011;30569;51.252;9.830;2023-07-13T06:10:46;9.18;;;1.75;;
44832;SDS011;30569;51.252;9.830;2023-07-13T06:13:11;6.50;;;1.83;;
44832;SDS011;30569;51.252;9.830;2023-07-13T06:15:37;8.02;;;1.85;;
44832;SDS011;30569;51.252;9.830;2023-07-13T06:18:02;6.93;;;1.65;;
44832;SDS011;30569;51.252;9.830;2023-07-13T06:20:28;5.10;;;1.52;;
44832;SDS011;30569;51.252;9.830;2023-07-13T06:22:54;7.60;;;2.47;;
44832;SDS011;30569;51.252;9.830;2023-07-13T06:25:20;6.80;;;1.70;;
44832;SDS011;30569;51.252;9.830;2023-07-13T06:27:45;7.88;;;2.13;;
44832;SDS011;30569;51.252;9.830;2023-07-13T06:30:11;7.15;;;1.65;;
44832;SDS011;30569;51.252;9.830;2023-07-13T06:32:37;5.60;;;1.38;;
44832;SDS011;30569;51.252;9.830;2023-07-13T06:35:03;5.85;;;1.50;;
44832;SDS011;30569;51.252;9.830;2023-07-13T06:37:29;5.88;;;1.50;;
44832;SDS011;30569;51.252;9.830;2023-07-13T06:39:54;4.65;;;1.58;;
44832;SDS011;30569;51.252;9.830;2023-07-13T06:42:20;5.22;;;2.00;;
44832;SDS011;30569;51.252;9.830;2023-07-13T06:44:45;4.35;;;1.67;;
44832;SDS011;30569;51.252;9.830;2023-07-13T06:47:11;6.38;;;1.50;;
44832;SDS011;30569;51.252;9.830;2023-07-13T06:49:37;8.30;;;1.60;;
44832;SDS011;30569;51.252;9.830;2023-07-13T06:52:02;6.00;;;1.50;;
44832;SDS011;30569;51.252;9.830;2023-07-13T06:54:28;4.15;;;1.30;;
44832;SDS011;30569;51.252;9.830;2023-07-13T06:56:54;5.03;;;1.55;;
44832;SDS011;30569;51.252;9.830;2023-07-13T06:59:19;4.88;;;1.75;;
44832;SDS011;30569;51.252;9.830;2023-07-13T07:01:45;5.45;;;1.10;;
44832;SDS011;30569;51.252;9.830;2023-07-13T07:04:10;5.28;;;1.75;;
44832;SDS011;30569;51.252;9.830;2023-07-13T07:06:36;4.90;;;1.42;;
44832;SDS011;30569;51.252;9.830;2023-07-13T07:09:01;4.00;;;1.52;;
44832;SDS011;30569;51.252;9.830;2023-07-13T07:11:27;5.22;;;1.35;;
44832;SDS011;30569;51.252;9.830;2023-07-13T07:13:52;4.05;;;1.35;;
44832;SDS011;30569;51.252;9.830;2023-07-13T07:16:19;3.17;;;1.10;;
44832;SDS011;30569;51.252;9.830;2023-07-13T07:18:46;5.85;;;1.40;;
44832;SDS011;30569;51.252;9.830;2023-07-13T07:21:12;4.25;;;1.38;;
44832;SDS011;30569;51.252;9.830;2023-07-13T07:23:38;4.88;;;1.65;;
44832;SDS011;30569;51.252;9.830;2023-07-13T07:26:04;6.25;;;1.50;;
44832;SDS011;30569;51.252;9.830;2023-07-13T07:28:30;4.35;;;1.20;;
44832;SDS011;30569;51.252;9.830;2023-07-13T07:30:56;8.27;;;1.50;;
44832;SDS011;30569;51.252;9.830;2023-07-13T07:33:23;3.90;;;1.30;;
44832;SDS011;30569;51.252;9.830;2023-07-13T07:35:49;3.67;;;1.25;;
44832;SDS011;30569;51.252;9.830;2023-07-13T07:38:16;5.18;;;1.40;;
44832;SDS011;30569;51.252;9.830;2023-07-13T07:40:41;4.32;;;1.33;;
44832;SDS011;30569;51.252;9.830;2023-07-13T07:43:08;5.75;;;1.20;;
44832;SDS011;30569;51.252;9.830;2023-07-13T07:45:34;3.95;;;1.10;;
44832;SDS011;30569;51.252;9.830;2023-07-13T07:48:00;5.30;;;1.50;;
44832;SDS011;30569;51.252;9.830;2023-07-13T07:50:26;7.47;;;1.45;;
44832;SDS011;30569;51.252;9.830;2023-07-13T07:52:53;4.93;;;1.73;;
44832;SDS011;30569;51.252;9.830;2023-07-13T07:55:20;4.88;;;1.30;;
44832;SDS011;30569;51.252;9.830;2023-07-13T07:57:46;6.10;;;1.20;;
44832;SDS011;30569;51.252;9.830;2023-07-13T08:00:12;5.43;;;1.23;;
44832;SDS011;30569;51.252;9.830;2023-07-13T08:02:38;4.72;;;1.35;;
44832;SDS011;30569;51.252;9.830;2023-07-13T08:05:06;5.75;;;1.35;;
44832;SDS011;30569;51.252;9.830;2023-07-13T08:07:34;5.45;;;1.48;;
44832;SDS011;30569;51.252;9.830;2023-07-13T08:10:00;5.72;;;1.10;;
44832;SDS011;30569;51.252;9.830;2023-07-13T08:12:26;4.25;;;1.40;;
44832;SDS011;30569;51.252;9.830;2023-07-13T08:14:51;3.97;;;1.25;;
44832;SDS011;30569;51.252;9.830;2023-07-13T08:17:23;5.40;;;1.63;;
44832;SDS011;30569;51.252;9.830;2023-07-13T08:19:49;6.88;;;1.10;;
44832;SDS011;30569;51.252;9.830;2023-07-13T08:22:15;4.88;;;1.30;;
44832;SDS011;30569;51.252;9.830;2023-07-13T08:24:41;4.65;;;1.42;;
44832;SDS011;30569;51.252;9.830;2023-07-13T08:27:07;3.33;;;1.00;;
44832;SDS011;30569;51.252;9.830;2023-07-13T08:29:33;3.47;;;0.98;;
44832;SDS011;30569;51.252;9.830;2023-07-13T08:31:59;9.00;;;1.20;;
44832;SDS011;30569;51.252;9.830;2023-07-13T08:34:24;4.68;;;1.20;;
44832;SDS011;30569;51.252;9.830;2023-07-13T08:36:50;4.22;;;1.02;;
44832;SDS011;30569;51.252;9.830;2023-07-13T08:39:15;7.35;;;1.38;;
44832;SDS011;30569;51.252;9.830;2023-07-13T08:41:41;3.90;;;1.00;;
44832;SDS011;30569;51.252;9.830;2023-07-13T08:44:10;5.65;;;1.10;;
44832;SDS011;30569;51.252;9.830;2023-07-13T08:46:48;5.22;;;1.08;;
44832;SDS011;30569;51.252;9.830;2023-07-13T08:49:17;4.65;;;1.00;;
44832;SDS011;30569;51.252;9.830;2023-07-13T08:57:13;3.55;;;1.10;;
44832;SDS011;30569;51.252;9.830;2023-07-13T08:59:40;5.28;;;1.20;;
44832;SDS011;30569;51.252;9.830;2023-07-13T09:07:26;3.40;;;1.08;;
44832;SDS011;30569;51.252;9.830;2023-07-13T09:10:16;4.95;;;1.20;;
44832;SDS011;30569;51.252;9.830;2023-07-13T09:13:00;3.67;;;0.90;;
44832;SDS011;30569;51.252;9.830;2023-07-13T09:15:43;3.20;;;1.00;;
44832;SDS011;30569;51.252;9.830;2023-07-13T09:18:14;7.53;;;1.08;;
44832;SDS011;30569;51.252;9.830;2023-07-13T09:20:57;4.78;;;1.15;;
44832;SDS011;30569;51.252;9.830;2023-07-13T09:23:27;4.53;;;1.48;;
44832;SDS011;30569;51.252;9.830;2023-07-13T09:25:58;3.92;;;1.13;;
44832;SDS011;30569;51.252;9.830;2023-07-13T09:28:41;3.13;;;0.95;;
44832;SDS011;30569;51.252;9.830;2023-07-13T09:31:21;5.25;;;1.40;;
44832;SDS011;30569;51.252;9.830;2023-07-13T09:38:44;2.78;;;0.82;;
44832;SDS011;30569;51.252;9.830;2023-07-13T09:44:00;6.07;;;1.07;;
44832;SDS011;30569;51.252;9.830;2023-07-13T09:46:27;5.88;;;1.20;;
44832;SDS011;30569;51.252;9.830;2023-07-13T09:48:52;3.13;;;1.17;;
44832;SDS011;30569;51.252;9.830;2023-07-13T09:51:18;5.53;;;1.02;;
44832;SDS011;30569;51.252;9.830;2023-07-13T09:53:43;3.80;;;1.10;;
44832;SDS011;30569;51.252;9.830;2023-07-13T09:56:22;4.22;;;1.23;;
44832;SDS011;30569;51.252;9.830;2023-07-13T09:58:51;4.35;;;1.10;;
44832;SDS011;30569;51.252;9.830;2023-07-13T10:01:21;3.35;;;1.20;;
44832;SDS011;30569;51.252;9.830;2023-07-13T10:04:00;3.55;;;1.30;;
44832;SDS011;30569;51.252;9.830;2023-07-13T10:06:26;3.30;;;1.00;;
44832;SDS011;30569;51.252;9.830;2023-07-13T10:08:52;3.72;;;1.20;;
44832;SDS011;30569;51.252;9.830;2023-07-13T10:11:20;2.42;;;1.08;;
44832;SDS011;30569;51.252;9.830;2023-07-13T10:13:51;4.22;;;1.17;;
44832;SDS011;30569;51.252;9.830;2023-07-13T10:16:28;3.58;;;1.10;;
44832;SDS011;30569;51.252;9.830;2023-07-13T10:18:58;2.50;;;0.82;;
44832;SDS011;30569;51.252;9.830;2023-07-13T10:21:28;4.25;;;1.10;;
44832;SDS011;30569;51.252;9.830;2023-07-13T10:24:09;4.20;;;1.25;;
44832;SDS011;30569;51.252;9.830;2023-07-13T10:26:50;5.00;;;1.05;;
44832;SDS011;30569;51.252;9.830;2023-07-13T10:31:45;2.67;;;0.95;;
44832;SDS011;30569;51.252;9.830;2023-07-13T10:34:11;3.10;;;1.00;;
44832;SDS011;30569;51.252;9.830;2023-07-13T10:36:44;3.38;;;1.40;;
44832;SDS011;30569;51.252;9.830;2023-07-13T10:39:30;2.72;;;1.10;;
44832;SDS011;30569;51.252;9.830;2023-07-13T10:41:58;5.05;;;1.30;;
44832;SDS011;30569;51.252;9.830;2023-07-13T10:44:28;3.88;;;1.13;;
44832;SDS011;30569;51.252;9.830;2023-07-13T10:46:57;2.70;;;1.00;;
44832;SDS011;30569;51.252;9.830;2023-07-13T10:49:26;3.58;;;1.48;;
44832;SDS011;30569;51.252;9.830;2023-07-13T10:51:53;4.82;;;1.05;;
44832;SDS011;30569;51.252;9.830;2023-07-13T10:54:20;3.90;;;1.13;;
44832;SDS011;30569;51.252;9.830;2023-07-13T10:56:49;5.47;;;1.30;;
44832;SDS011;30569;51.252;9.830;2023-07-13T10:59:23;5.25;;;1.58;;
44832;SDS011;30569;51.252;9.830;2023-07-13T11:02:27;3.15;;;1.02;;
44832;SDS011;30569;51.252;9.830;2023-07-13T11:04:51;4.45;;;1.17;;
44832;SDS011;30569;51.252;9.830;2023-07-13T11:07:23;4.57;;;1.10;;
44832;SDS011;30569;51.252;9.830;2023-07-13T11:09:54;2.60;;;1.00;;
44832;SDS011;30569;51.252;9.830;2023-07-13T11:17:33;3.63;;;1.13;;
44832;SDS011;30569;51.252;9.830;2023-07-13T11:20:09;4.05;;;1.25;;
44832;SDS011;30569;51.252;9.830;2023-07-13T11:22:52;3.50;;;1.17;;
44832;SDS011;30569;51.252;9.830;2023-07-13T11:25:33;3.85;;;1.20;;
44832;SDS011;30569;51.252;9.830;2023-07-13T11:35:40;2.60;;;0.98;;
44832;SDS011;30569;51.252;9.830;2023-07-13T11:38:15;2.13;;;0.90;;
44832;SDS011;30569;51.252;9.830;2023-07-13T11:40:45;4.03;;;1.17;;
44832;SDS011;30569;51.252;9.830;2023-07-13T11:43:13;5.05;;;1.30;;
44832;SDS011;30569;51.252;9.830;2023-07-13T11:45:40;3.22;;;0.98;;
44832;SDS011;30569;51.252;9.830;2023-07-13T11:50:53;4.18;;;1.05;;
44832;SDS011;30569;51.252;9.830;2023-07-13T11:53:22;6.70;;;1.33;;
44832;SDS011;30569;51.252;9.830;2023-07-13T11:55:52;3.25;;;1.40;;
44832;SDS011;30569;51.252;9.830;2023-07-13T11:58:21;4.28;;;1.23;;
44832;SDS011;30569;51.252;9.830;2023-07-13T12:00:49;3.45;;;1.10;;
44832;SDS011;30569;51.252;9.830;2023-07-13T12:03:18;3.72;;;1.15;;
44832;SDS011;30569;51.252;9.830;2023-07-13T12:08:28;2.80;;;1.10;;
44832;SDS011;30569;51.252;9.830;2023-07-13T12:10:59;3.08;;;1.20;;
44832;SDS011;30569;51.252;9.830;2023-07-13T12:13:40;5.82;;;1.30;;
44832;SDS011;30569;51.252;9.830;2023-07-13T12:16:12;5.10;;;1.30;;
44832;SDS011;30569;51.252;9.830;2023-07-13T12:18:42;3.15;;;0.90;;
44832;SDS011;30569;51.252;9.830;2023-07-13T12:21:13;4.28;;;1.30;;
44832;SDS011;30569;51.252;9.830;2023-07-13T12:23:43;4.10;;;1.20;;
44832;SDS011;30569;51.252;9.830;2023-07-13T12:26:13;3.13;;;0.95;;
44832;SDS011;30569;51.252;9.830;2023-07-13T12:28:45;3.83;;;1.10;;
44832;SDS011;30569;51.252;9.830;2023-07-13T12:31:32;3.95;;;1.13;;
44832;SDS011;30569;51.252;9.830;2023-07-13T12:34:08;3.45;;;1.10;;
44832;SDS011;30569;51.252;9.830;2023-07-13T12:36:37;3.50;;;1.05;;
44832;SDS011;30569;51.252;9.830;2023-07-13T12:39:12;3.78;;;0.98;;
44832;SDS011;30569;51.252;9.830;2023-07-13T12:41:44;3.55;;;1.02;;
44832;SDS011;30569;51.252;9.830;2023-07-13T12:44:25;5.80;;;1.10;;
44832;SDS011;30569;51.252;9.830;2023-07-13T12:46:54;4.78;;;1.20;;
44832;SDS011;30569;51.252;9.830;2023-07-13T12:49:29;3.10;;;1.17;;
44832;SDS011;30569;51.252;9.830;2023-07-13T12:51:57;2.30;;;0.95;;
44832;SDS011;30569;51.252;9.830;2023-07-13T12:54:24;3.17;;;1.25;;
44832;SDS011;30569;51.252;9.830;2023-07-13T12:56:52;2.95;;;0.98;;
44832;SDS011;30569;51.252;9.830;2023-07-13T12:59:22;4.53;;;1.05;;
44832;SDS011;30569;51.252;9.830;2023-07-13T13:01:51;3.45;;;1.10;;
44832;SDS011;30569;51.252;9.830;2023-07-13T13:04:18;3.83;;;1.23;;
44832;SDS011;30569;51.252;9.830;2023-07-13T13:06:46;2.30;;;0.82;;
44832;SDS011;30569;51.252;9.830;2023-07-13T13:09:13;3.67;;;1.10;;
44832;SDS011;30569;51.252;9.830;2023-07-13T13:11:40;5.30;;;0.80;;
44832;SDS011;30569;51.252;9.830;2023-07-13T13:14:06;4.10;;;1.10;;
44832;SDS011;30569;51.252;9.830;2023-07-13T13:16:37;4.43;;;1.00;;
44832;SDS011;30569;51.252;9.830;2023-07-13T13:19:18;3.47;;;1.02;;
44832;SDS011;30569;51.252;9.830;2023-07-13T13:21:47;3.05;;;0.95;;
44832;SDS011;30569;51.252;9.830;2023-07-13T13:24:16;4.03;;;1.00;;
44832;SDS011;30569;51.252;9.830;2023-07-13T13:26:45;5.00;;;1.20;;
44832;SDS011;30569;51.252;9.830;2023-07-13T13:29:13;2.63;;;0.90;;
44832;SDS011;30569;51.252;9.830;2023-07-13T13:31:39;2.30;;;0.80;;
44832;SDS011;30569;51.252;9.830;2023-07-13T13:34:07;2.30;;;0.85;;
44832;SDS011;30569;51.252;9.830;2023-07-13T13:36:37;4.03;;;1.08;;
44832;SDS011;30569;51.252;9.830;2023-07-13T13:39:05;4.00;;;1.10;;
44832;SDS011;30569;51.252;9.830;2023-07-13T13:41:43;2.70;;;1.00;;
44832;SDS011;30569;51.252;9.830;2023-07-13T13:44:09;2.63;;;0.98;;
44832;SDS011;30569;51.252;9.830;2023-07-13T13:46:35;2.38;;;0.90;;
44832;SDS011;30569;51.252;9.830;2023-07-13T13:49:01;3.38;;;1.23;;
44832;SDS011;30569;51.252;9.830;2023-07-13T13:51:27;3.25;;;0.98;;
44832;SDS011;30569;51.252;9.830;2023-07-13T13:53:54;4.68;;;1.50;;
44832;SDS011;30569;51.252;9.830;2023-07-13T13:56:19;2.33;;;0.90;;
44832;SDS011;30569;51.252;9.830;2023-07-13T13:58:45;2.55;;;1.02;;
44832;SDS011;30569;51.252;9.830;2023-07-13T14:01:16;3.47;;;1.00;;
44832;SDS011;30569;51.252;9.830;2023-07-13T14:03:44;2.90;;;1.08;;
44832;SDS011;30569;51.252;9.830;2023-07-13T14:06:13;5.75;;;1.33;;
44832;SDS011;30569;51.252;9.830;2023-07-13T14:08:40;4.03;;;1.10;;
44832;SDS011;30569;51.252;9.830;2023-07-13T14:11:07;3.80;;;1.10;;
44832;SDS011;30569;51.252;9.830;2023-07-13T14:13:40;3.97;;;1.05;;
44832;SDS011;30569;51.252;9.830;2023-07-13T14:16:20;2.92;;;1.05;;
44832;SDS011;30569;51.252;9.830;2023-07-13T14:18:47;2.85;;;1.10;;
44832;SDS011;30569;51.252;9.830;2023-07-13T14:21:15;3.65;;;1.25;;
44832;SDS011;30569;51.252;9.830;2023-07-13T14:23:44;2.53;;;1.05;;
44832;SDS011;30569;51.252;9.830;2023-07-13T14:26:15;3.90;;;1.33;;
44832;SDS011;30569;51.252;9.830;2023-07-13T14:28:47;4.18;;;1.40;;
44832;SDS011;30569;51.252;9.830;2023-07-13T14:31:15;3.30;;;1.20;;
44832;SDS011;30569;51.252;9.830;2023-07-13T14:33:42;2.42;;;1.23;;
44832;SDS011;30569;51.252;9.830;2023-07-13T14:39:01;3.70;;;1.27;;
44832;SDS011;30569;51.252;9.830;2023-07-13T14:41:36;5.30;;;1.25;;
44832;SDS011;30569;51.252;9.830;2023-07-13T14:44:04;3.88;;;1.33;;
44832;SDS011;30569;51.252;9.830;2023-07-13T14:46:38;5.90;;;1.40;;
44832;SDS011;30569;51.252;9.830;2023-07-13T14:49:15;4.25;;;1.55;;
44832;SDS011;30569;51.252;9.830;2023-07-13T14:51:45;2.90;;;1.17;;
44832;SDS011;30569;51.252;9.830;2023-07-13T14:54:10;3.15;;;1.20;;
44832;SDS011;30569;51.252;9.830;2023-07-13T14:56:36;4.53;;;1.33;;
44832;SDS011;30569;51.252;9.830;2023-07-13T14:59:02;3.08;;;1.17;;
44832;SDS011;30569;51.252;9.830;2023-07-13T15:01:27;3.17;;;1.40;;
44832;SDS011;30569;51.252;9.830;2023-07-13T15:03:55;4.85;;;1.83;;
44832;SDS011;30569;51.252;9.830;2023-07-13T15:06:21;3.88;;;1.40;;
44832;SDS011;30569;51.252;9.830;2023-07-13T15:08:46;3.63;;;1.20;;
44832;SDS011;30569;51.252;9.830;2023-07-13T15:11:13;4.75;;;1.40;;
44832;SDS011;30569;51.252;9.830;2023-07-13T15:13:40;6.40;;;1.20;;
44832;SDS011;30569;51.252;9.830;2023-07-13T15:16:17;3.55;;;1.25;;
44832;SDS011;30569;51.252;9.830;2023-07-13T15:18:48;5.05;;;1.30;;
44832;SDS011;30569;51.252;9.830;2023-07-13T15:21:18;3.35;;;1.15;;
44832;SDS011;30569;51.252;9.830;2023-07-13T15:23:46;3.90;;;1.20;;
44832;SDS011;30569;51.252;9.830;2023-07-13T15:26:15;3.60;;;1.25;;
44832;SDS011;30569;51.252;9.830;2023-07-13T15:28:42;2.80;;;1.00;;
44832;SDS011;30569;51.252;9.830;2023-07-13T15:31:15;3.90;;;1.30;;
44832;SDS011;30569;51.252;9.830;2023-07-13T15:33:46;7.97;;;1.10;;
44832;SDS011;30569;51.252;9.830;2023-07-13T15:36:14;3.28;;;1.00;;
44832;SDS011;30569;51.252;9.830;2023-07-13T15:38:44;4.35;;;1.30;;